Time;durP1;ratioP1;P1;durP2;ratioP2;P2;SDS_P1;SDS_P2;PMS_P1;PMS_P2;Temp;Humidity;BMP_temperature;BMP_pressure;BME280_temperature;BME280_humidity;BME280_pressure;Samples;Min_cycle;Max_cycle;Signal;HPM_P1;HPM_P2
2023/09/15 00:01:45;;;;;;;15.23;8.60;;;;;;;22.07;44.66;94051.63;4994601;28;20047;-79
2023/09/15 00:04:11;;;;;;;10.65;8.40;;;;;;;22.02;44.86;94046.56;4995231;28;20593;-79
2023/09/15 00:06:37;;;;;;;11.43;8.82;;;;;;;21.98;44.85;94043.06;4994625;28;20038;-78
2023/09/15 00:09:06;;;;;;;9.50;8.30;;;;;;;22.12;44.65;94051.25;4997925;28;20052;-78
2023/09/15 00:11:40;;;;;;;11.15;8.75;;;;;;;22.09;44.76;94057.44;4993499;28;20047;-79
2023/09/15 00:14:13;;;;;;;10.50;8.88;;;;;;;21.93;44.59;94048.06;4996332;28;20042;-79
2023/09/15 00:16:40;;;;;;;12.10;8.02;;;;;;;21.98;44.56;94048.47;4993512;28;20728;-78
2023/09/15 00:19:06;;;;;;;12.90;8.52;;;;;;;21.90;45.08;94043.41;4988624;28;20110;-79
2023/09/15 00:21:33;;;;;;;10.63;8.63;;;;;;;21.97;45.32;94068.59;4993406;28;20038;-79
2023/09/15 00:24:00;;;;;;;10.93;8.30;;;;;;;21.94;45.37;94063.16;4996436;28;20025;-79
2023/09/15 00:26:29;;;;;;;10.77;8.82;;;;;;;21.79;45.19;94046.84;4995587;28;20061;-79
2023/09/15 00:28:55;;;;;;;10.45;8.65;;;;;;;21.75;45.23;94048.75;4990209;28;20064;-79
2023/09/15 00:31:20;;;;;;;9.48;8.48;;;;;;;21.67;45.17;94043.66;4995236;28;20687;-78
2023/09/15 00:33:46;;;;;;;12.23;9.40;;;;;;;21.74;45.16;94051.81;4996437;28;20052;-79
2023/09/15 00:36:11;;;;;;;10.15;8.52;;;;;;;21.70;45.41;94059.94;4997040;28;20037;-79
2023/09/15 00:38:37;;;;;;;14.13;9.82;;;;;;;21.68;45.94;94042.50;4995022;28;20042;-78
2023/09/15 00:41:02;;;;;;;9.93;8.93;;;;;;;21.65;45.62;94046.75;4995151;28;20099;-78
2023/09/15 00:43:27;;;;;;;15.02;10.35;;;;;;;21.64;45.92;94049.84;4981963;28;20164;-79
2023/09/15 00:45:55;;;;;;;12.10;8.95;;;;;;;21.70;46.12;94059.16;5001142;28;20036;-79
2023/09/15 00:48:21;;;;;;;12.70;9.27;;;;;;;21.63;46.27;94051.75;5004223;28;20528;-79
2023/09/15 00:50:46;;;;;;;11.18;9.40;;;;;;;21.53;46.14;94032.72;5003266;28;20156;-79
2023/09/15 00:53:19;;;;;;;9.57;8.43;;;;;;;21.63;45.97;94054.47;4996408;28;20088;-79
2023/09/15 00:55:47;;;;;;;11.88;9.07;;;;;;;21.65;46.54;94059.50;5000353;28;20868;-79
2023/09/15 00:58:16;;;;;;;10.25;8.68;;;;;;;21.65;46.09;94056.81;5001104;28;20099;-79
2023/09/15 01:00:43;;;;;;;9.98;8.98;;;;;;;21.68;46.04;94059.53;4997091;28;20598;-78
2023/09/15 01:03:11;;;;;;;10.27;9.13;;;;;;;21.69;46.52;94061.09;5003809;28;20470;-78
2023/09/15 01:05:39;;;;;;;11.73;9.52;;;;;;;21.71;46.59;94063.41;5002955;28;20049;-79
2023/09/15 01:08:05;;;;;;;13.52;8.85;;;;;;;21.69;45.74;94068.44;4999371;28;20038;-79
2023/09/15 01:10:30;;;;;;;14.43;9.20;;;;;;;21.59;46.12;94074.53;5000019;28;20044;-78
2023/09/15 01:12:56;;;;;;;10.13;8.85;;;;;;;21.55;46.16;94068.34;5001305;28;20037;-79
2023/09/15 01:15:34;;;;;;;9.18;8.20;;;;;;;21.51;46.51;94067.50;4999791;28;20030;-79
2023/09/15 01:18:23;;;;;;;10.05;8.88;;;;;;;21.55;46.30;94076.44;4998740;28;20057;-79
2023/09/15 01:21:10;;;;;;;10.45;8.90;;;;;;;21.58;46.54;94083.81;5003010;28;20073;-79
2023/09/15 01:24:06;;;;;;;14.85;9.93;;;;;;;21.60;46.52;94081.50;4999199;28;20494;-79
2023/09/15 01:26:44;;;;;;;12.50;9.27;;;;;;;21.61;46.46;94083.06;5000517;28;20331;-79
2023/09/15 01:29:39;;;;;;;12.25;8.80;;;;;;;21.50;46.51;94087.59;5001800;28;20485;-77
2023/09/15 01:32:10;;;;;;;11.13;9.27;;;;;;;21.38;46.75;94080.53;5001564;28;20056;-76
2023/09/15 01:34:36;;;;;;;13.35;9.85;;;;;;;21.44;46.73;94079.81;5001032;28;20449;-79
2023/09/15 01:37:02;;;;;;;11.60;9.10;;;;;;;21.40;46.63;94068.19;4981704;28;20517;-77
2023/09/15 01:39:30;;;;;;;11.55;9.25;;;;;;;21.41;47.07;94074.41;5000726;28;20022;-79
2023/09/15 01:42:00;;;;;;;12.88;9.23;;;;;;;21.43;47.06;94083.69;4998177;28;20140;-79
2023/09/15 01:44:26;;;;;;;11.32;8.98;;;;;;;21.48;46.38;94087.97;5001042;28;20034;-78
2023/09/15 01:46:51;;;;;;;12.73;9.52;;;;;;;21.32;46.39;94061.16;4997842;28;20044;-79
2023/09/15 01:49:21;;;;;;;10.50;8.35;;;;;;;21.41;46.06;94083.25;5002572;28;20049;-78
2023/09/15 01:51:48;;;;;;;12.38;9.20;;;;;;;21.48;45.95;94089.88;4998088;28;20675;-78
2023/09/15 01:54:14;;;;;;;10.35;9.30;;;;;;;21.39;46.35;94092.91;4996506;28;20563;-79
2023/09/15 01:56:40;;;;;;;11.90;8.95;;;;;;;21.38;45.88;94092.13;4996794;28;20462;-79
2023/09/15 01:59:06;;;;;;;10.05;9.05;;;;;;;21.44;46.46;94098.75;4998011;28;20149;-79
2023/09/15 02:01:32;;;;;;;14.85;10.65;;;;;;;21.35;46.64;94092.91;4994080;28;20049;-79
2023/09/15 02:03:57;;;;;;;10.70;9.60;;;;;;;21.24;46.84;94083.13;4981139;28;20038;-79
2023/09/15 02:06:22;;;;;;;9.70;8.57;;;;;;;21.19;46.62;94092.38;4997306;28;20034;-78
2023/09/15 02:08:48;;;;;;;13.45;9.02;;;;;;;21.23;46.65;94095.88;4999614;28;20406;-79
2023/09/15 02:11:14;;;;;;;11.43;9.30;;;;;;;21.13;46.71;94091.16;4994675;28;20747;-77
2023/09/15 02:13:41;;;;;;;10.35;9.25;;;;;;;21.13;46.87;94096.56;4997775;28;20081;-79
2023/09/15 02:16:06;;;;;;;12.07;9.30;;;;;;;21.12;47.14;94089.59;4996156;28;20122;-78
2023/09/15 02:18:32;;;;;;;11.55;9.75;;;;;;;21.15;46.78;94093.50;4978901;28;20022;-79
2023/09/15 02:20:57;;;;;;;16.02;10.15;;;;;;;21.21;46.74;94108.22;4979682;28;20056;-79
2023/09/15 02:23:24;;;;;;;9.45;8.45;;;;;;;21.25;46.77;94099.00;4997256;28;20058;-79
2023/09/15 02:25:50;;;;;;;12.35;9.40;;;;;;;21.12;46.97;94097.69;4998763;28;21115;-79
2023/09/15 02:28:16;;;;;;;10.30;9.00;;;;;;;21.20;46.99;94112.06;4997505;28;20033;-79
2023/09/15 02:30:41;;;;;;;13.40;9.85;;;;;;;21.26;46.99;94122.19;4998398;28;20033;-78
2023/09/15 02:33:06;;;;;;;10.73;9.63;;;;;;;21.16;47.13;94101.25;4996910;28;20581;-78
2023/09/15 02:35:32;;;;;;;10.18;9.20;;;;;;;21.24;47.38;94121.00;4980631;28;20038;-78
2023/09/15 02:37:57;;;;;;;11.27;10.07;;;;;;;21.25;47.16;94119.84;4977930;28;20045;-79
2023/09/15 02:40:24;;;;;;;12.02;9.93;;;;;;;21.24;47.03;94129.91;4999149;28;20509;-79
2023/09/15 02:42:49;;;;;;;11.20;9.95;;;;;;;21.18;46.93;94109.75;4996124;28;20109;-79
2023/09/15 02:45:15;;;;;;;11.85;9.48;;;;;;;21.05;46.84;94100.34;4999543;28;20029;-79
2023/09/15 02:47:40;;;;;;;13.90;10.32;;;;;;;21.06;47.22;94101.13;4993127;28;20096;-78
2023/09/15 02:50:07;;;;;;;10.15;9.15;;;;;;;21.09;46.90;94109.28;4996973;28;20130;-79
2023/09/15 02:52:33;;;;;;;13.68;9.35;;;;;;;21.05;47.42;94105.75;4997776;28;20169;-79
2023/09/15 02:54:59;;;;;;;11.70;9.50;;;;;;;21.04;47.36;94115.03;4997358;28;20073;-79
2023/09/15 02:57:24;;;;;;;13.13;10.27;;;;;;;21.00;47.49;94122.31;4997265;28;20041;-79
2023/09/15 02:59:52;;;;;;;9.95;8.43;;;;;;;20.93;47.41;94116.81;4997529;28;20623;-79
2023/09/15 03:02:20;;;;;;;10.30;9.13;;;;;;;20.95;47.11;94111.84;4997055;28;20041;-79
2023/09/15 03:04:46;;;;;;;10.35;8.90;;;;;;;21.05;46.87;94132.03;4997174;28;20030;-79
2023/09/15 03:07:13;;;;;;;16.05;9.05;;;;;;;20.96;46.93;94116.09;4996841;28;20037;-75
2023/09/15 03:09:38;;;;;;;11.77;8.57;;;;;;;20.97;47.63;94131.19;4992518;28;20169;-79
2023/09/15 03:12:04;;;;;;;15.75;9.38;;;;;;;20.92;47.69;94123.41;4997139;28;20026;-79
2023/09/15 03:14:30;;;;;;;10.60;9.52;;;;;;;21.02;47.66;94128.16;4994737;28;21118;-77
2023/09/15 03:16:55;;;;;;;11.85;8.55;;;;;;;21.01;47.35;94127.38;4994867;28;20038;-79
2023/09/15 03:19:22;;;;;;;10.73;8.75;;;;;;;20.99;47.67;94112.66;4996765;28;20042;-79
2023/09/15 03:21:47;;;;;;;10.43;9.38;;;;;;;21.11;46.61;94130.53;4997912;28;20031;-79
2023/09/15 03:24:12;;;;;;;9.60;7.65;;;;;;;20.85;46.92;94107.06;4981097;28;20033;-79
2023/09/15 03:26:39;;;;;;;11.80;9.75;;;;;;;21.05;46.33;94121.97;4996304;28;20092;-79
2023/09/15 03:29:05;;;;;;;10.80;8.75;;;;;;;21.07;46.54;94141.31;4996711;28;20041;-79
2023/09/15 03:31:31;;;;;;;12.20;8.30;;;;;;;21.11;46.51;94147.56;4994927;28;20034;-78
2023/09/15 03:33:56;;;;;;;11.35;8.68;;;;;;;20.95;46.72;94128.06;4997598;28;20137;-78
2023/09/15 03:36:22;;;;;;;9.00;8.00;;;;;;;21.12;46.40;94140.22;4998019;28;20104;-77
2023/09/15 03:38:48;;;;;;;10.30;7.78;;;;;;;21.07;46.39;94130.50;4996635;28;20461;-79
2023/09/15 03:41:14;;;;;;;10.90;8.63;;;;;;;21.17;46.21;94145.28;4994586;28;20559;-79
2023/09/15 03:43:39;;;;;;;11.13;7.80;;;;;;;21.06;46.71;94136.28;4996221;28;21124;-79
2023/09/15 03:46:05;;;;;;;12.82;8.40;;;;;;;20.91;46.73;94143.47;4994373;28;20041;-79
2023/09/15 03:48:31;;;;;;;12.65;8.38;;;;;;;20.87;46.78;94134.56;4992190;28;20561;-78
2023/09/15 03:50:56;;;;;;;10.02;9.02;;;;;;;20.90;46.60;94144.63;4996337;28;20465;-78
2023/09/15 03:53:22;;;;;;;10.85;8.65;;;;;;;20.84;46.70;94116.31;4991517;28;20462;-78
2023/09/15 03:55:48;;;;;;;12.30;7.82;;;;;;;21.00;46.82;94152.84;4993453;28;20059;-78
2023/09/15 03:58:14;;;;;;;12.63;8.07;;;;;;;21.00;46.53;94154.75;4975131;28;20061;-79
2023/09/15 04:00:40;;;;;;;8.93;7.95;;;;;;;21.03;46.61;94156.72;4996919;28;20501;-79
2023/09/15 04:03:05;;;;;;;9.20;7.30;;;;;;;20.97;46.49;94152.81;4996585;28;20054;-79
2023/09/15 04:05:31;;;;;;;9.00;7.72;;;;;;;20.91;46.52;94151.59;4993200;28;20584;-78
2023/09/15 04:07:56;;;;;;;8.50;7.22;;;;;;;20.92;46.51;94155.84;4995627;28;20525;-79
2023/09/15 04:10:22;;;;;;;9.27;7.80;;;;;;;20.92;46.64;94155.84;4996395;28;20409;-78
2023/09/15 04:12:48;;;;;;;8.90;7.90;;;;;;;20.88;46.64;94155.78;4992794;28;20761;-79
2023/09/15 04:15:15;;;;;;;10.18;7.07;;;;;;;20.89;46.56;94161.97;4994607;28;20053;-78
2023/09/15 04:17:41;;;;;;;8.73;6.43;;;;;;;20.86;46.44;94162.69;4994917;28;20080;-79
2023/09/15 04:20:09;;;;;;;9.15;6.82;;;;;;;20.45;47.37;94154.50;4995857;28;20041;-77
2023/09/15 04:22:38;;;;;;;11.43;8.10;;;;;;;20.41;47.39;94142.88;4993986;28;20040;-79
2023/09/15 04:25:05;;;;;;;8.02;7.15;;;;;;;20.23;48.08;94160.78;4996532;28;20474;-78
2023/09/15 04:27:32;;;;;;;9.85;7.28;;;;;;;20.23;47.79;94179.69;4994416;28;20040;-79
2023/09/15 04:29:58;;;;;;;12.88;7.93;;;;;;;20.14;48.00;94163.69;4977387;28;20440;-79
2023/09/15 04:32:23;;;;;;;12.82;7.43;;;;;;;20.12;48.53;94178.72;4996299;28;20045;-79
2023/09/15 04:34:50;;;;;;;10.38;6.32;;;;;;;20.11;48.70;94182.53;4993304;28;20042;-75
2023/09/15 04:37:15;;;;;;;8.30;6.53;;;;;;;19.92;48.75;94161.06;4998400;28;20025;-78
2023/09/15 04:39:41;;;;;;;8.10;6.60;;;;;;;20.18;48.72;94182.69;4994484;28;20038;-78
2023/09/15 04:42:06;;;;;;;12.40;7.82;;;;;;;20.32;48.49;94185.59;4997089;28;20034;-79
2023/09/15 04:44:32;;;;;;;8.35;6.57;;;;;;;20.37;48.33;94176.38;4992562;28;20030;-79
2023/09/15 04:46:57;;;;;;;10.43;7.10;;;;;;;20.44;48.12;94188.03;4995176;28;20038;-78
2023/09/15 04:49:23;;;;;;;16.05;7.28;;;;;;;20.39;47.96;94176.78;4979825;28;20045;-78
2023/09/15 04:51:48;;;;;;;8.70;6.22;;;;;;;20.25;48.09;94174.66;4993502;28;20049;-78
2023/09/15 04:54:14;;;;;;;11.90;7.43;;;;;;;20.48;47.85;94185.41;4993545;28;20030;-79
2023/09/15 04:56:40;;;;;;;8.88;6.60;;;;;;;20.47;48.06;94171.13;4994185;28;20593;-78
2023/09/15 04:59:15;;;;;;;10.48;6.53;;;;;;;20.53;48.04;94188.53;4994459;28;20088;-79
2023/09/15 05:01:45;;;;;;;9.98;6.35;;;;;;;20.43;47.91;94181.09;5000238;28;20062;-79
2023/09/15 05:04:13;;;;;;;12.95;6.90;;;;;;;20.22;48.78;94188.91;4994581;28;20111;-79
2023/09/15 05:06:39;;;;;;;13.60;6.88;;;;;;;20.15;49.04;94178.75;4994834;28;20056;-80
2023/09/15 05:09:05;;;;;;;10.88;7.13;;;;;;;20.37;48.65;94198.78;4992049;28;20485;-79
2023/09/15 05:11:31;;;;;;;8.75;6.03;;;;;;;20.08;48.81;94167.88;4996102;28;20054;-79
2023/09/15 05:13:56;;;;;;;10.20;6.57;;;;;;;20.00;49.41;94177.00;4993632;28;20046;-79
2023/09/15 05:16:23;;;;;;;7.70;6.93;;;;;;;19.94;49.40;94191.19;4993628;28;20145;-79
2023/09/15 05:18:49;;;;;;;8.60;7.20;;;;;;;19.79;50.39;94208.28;4972088;28;20069;-80
2023/09/15 05:21:14;;;;;;;11.45;8.20;;;;;;;19.72;50.85;94209.72;4989191;28;20499;-79
2023/09/15 05:23:40;;;;;;;8.80;7.05;;;;;;;19.67;50.91;94201.94;4990902;28;20585;-80
2023/09/15 05:26:07;;;;;;;9.23;7.68;;;;;;;19.94;50.78;94210.06;4994989;28;20034;-80
2023/09/15 05:28:32;;;;;;;10.13;7.28;;;;;;;20.01;50.54;94210.16;4990631;28;21001;-79
2023/09/15 05:30:59;;;;;;;8.75;6.78;;;;;;;19.81;50.49;94200.59;5004667;28;20494;-79
2023/09/15 05:33:27;;;;;;;7.80;6.65;;;;;;;19.75;50.89;94210.91;4996718;28;20065;-79
2023/09/15 05:35:56;;;;;;;7.60;6.82;;;;;;;19.61;51.22;94192.56;4996154;28;20551;-79
2023/09/15 05:38:22;;;;;;;9.90;7.85;;;;;;;19.47;52.03;94203.13;4988205;28;20565;-79
2023/09/15 05:40:48;;;;;;;10.57;8.15;;;;;;;19.64;52.30;94213.47;4977901;28;20117;-79
2023/09/15 05:43:13;;;;;;;9.10;7.53;;;;;;;19.82;51.71;94212.94;4995213;28;20060;-79
2023/09/15 05:45:38;;;;;;;10.77;7.72;;;;;;;19.72;51.90;94209.72;4997492;28;20125;-79
2023/09/15 05:48:04;;;;;;;11.10;8.40;;;;;;;19.77;52.14;94215.94;4996771;28;20040;-79
2023/09/15 05:50:29;;;;;;;9.65;8.45;;;;;;;19.66;52.73;94219.25;4994942;28;20041;-79
2023/09/15 05:52:55;;;;;;;10.73;8.18;;;;;;;19.90;52.65;94220.78;4993098;28;20089;-78
2023/09/15 05:55:20;;;;;;;9.20;8.20;;;;;;;20.12;52.39;94224.59;4996040;28;20177;-79
2023/09/15 05:57:46;;;;;;;11.57;8.27;;;;;;;19.97;52.10;94210.13;4996583;28;20682;-79
2023/09/15 06:00:11;;;;;;;13.80;8.65;;;;;;;19.64;53.09;94218.84;4994957;28;20041;-79
2023/09/15 06:02:37;;;;;;;16.65;8.30;;;;;;;19.65;53.59;94220.38;4993969;28;20057;-79
2023/09/15 06:05:02;;;;;;;10.73;9.02;;;;;;;19.84;53.64;94226.88;4995149;28;20417;-78
2023/09/15 06:07:29;;;;;;;10.13;8.45;;;;;;;19.77;53.43;94227.53;4996605;28;20041;-76
2023/09/15 06:09:54;;;;;;;11.38;8.35;;;;;;;19.58;53.81;94209.50;4995887;28;20830;-79
2023/09/15 06:12:19;;;;;;;11.48;8.85;;;;;;;19.81;53.57;94222.97;4999631;28;20036;-79
2023/09/15 06:14:45;;;;;;;12.05;8.00;;;;;;;19.83;53.67;94225.31;5002728;28;20528;-79
2023/09/15 06:17:12;;;;;;;14.10;9.10;;;;;;;19.83;53.94;94220.69;4997182;28;20049;-79
2023/09/15 06:19:37;;;;;;;16.13;9.05;;;;;;;19.84;53.72;94214.16;4994941;28;20926;-79
2023/09/15 06:22:03;;;;;;;10.05;8.48;;;;;;;19.80;53.50;94221.41;4996731;28;20046;-79
2023/09/15 06:24:29;;;;;;;12.23;8.70;;;;;;;19.61;54.81;94219.56;4995222;28;20065;-77
2023/09/15 06:26:54;;;;;;;10.27;8.57;;;;;;;19.66;54.34;94213.06;5000628;28;20481;-79
2023/09/15 06:29:21;;;;;;;10.45;9.13;;;;;;;19.76;54.25;94204.38;4977685;28;20091;-80
2023/09/15 06:31:47;;;;;;;11.50;8.00;;;;;;;19.76;54.13;94228.66;4995489;28;20675;-79
2023/09/15 06:34:12;;;;;;;10.55;8.95;;;;;;;19.84;53.87;94214.16;4996272;28;20050;-79
2023/09/15 06:36:39;;;;;;;10.02;8.48;;;;;;;19.96;53.69;94216.66;4976958;28;20042;-79
2023/09/15 06:39:06;;;;;;;15.05;9.05;;;;;;;20.13;53.72;94212.69;4996390;28;20030;-79
2023/09/15 06:41:32;;;;;;;12.05;8.45;;;;;;;20.30;53.56;94222.97;4994986;28;20030;-79
2023/09/15 06:43:58;;;;;;;13.73;8.25;;;;;;;20.32;53.28;94226.09;4980431;28;20041;-79
2023/09/15 06:46:24;;;;;;;15.07;9.05;;;;;;;20.35;53.74;94211.84;4997780;28;20038;-79
2023/09/15 06:48:49;;;;;;;13.82;9.15;;;;;;;20.46;53.42;94210.09;4997251;28;20775;-78
2023/09/15 06:51:15;;;;;;;14.98;8.40;;;;;;;20.60;52.36;94223.78;4998269;28;20576;-79
2023/09/15 06:53:40;;;;;;;13.68;7.53;;;;;;;20.55;52.15;94223.31;4994286;28;20049;-79
2023/09/15 06:56:05;;;;;;;13.65;9.23;;;;;;;20.69;52.13;94211.91;4996250;28;20216;-79
2023/09/15 06:58:31;;;;;;;13.65;8.18;;;;;;;20.76;51.64;94209.31;4996385;28;20041;-79
2023/09/15 07:00:56;;;;;;;10.50;8.02;;;;;;;20.75;52.09;94211.22;4992621;28;20033;-79
2023/09/15 07:03:23;;;;;;;11.35;8.45;;;;;;;20.82;52.03;94211.31;4996347;28;20518;-79
2023/09/15 07:05:49;;;;;;;12.02;8.25;;;;;;;20.83;51.23;94201.25;4994979;28;20069;-79
2023/09/15 07:08:15;;;;;;;9.93;8.98;;;;;;;20.95;51.73;94220.00;4984518;28;20144;-79
2023/09/15 07:10:40;;;;;;;11.38;9.32;;;;;;;21.01;51.27;94207.72;4996630;28;20124;-78
2023/09/15 07:13:05;;;;;;;13.00;8.02;;;;;;;20.93;51.52;94217.66;4992906;28;20061;-79
2023/09/15 07:15:34;;;;;;;13.60;8.75;;;;;;;21.09;51.98;94213.97;4992769;28;20021;-78
2023/09/15 07:18:00;;;;;;;11.20;9.38;;;;;;;21.26;51.61;94219.56;4982853;28;20025;-77
2023/09/15 07:20:25;;;;;;;15.82;8.40;;;;;;;21.09;51.47;94209.34;4976844;28;20108;-77
2023/09/15 07:22:50;;;;;;;11.32;9.40;;;;;;;21.24;51.27;94216.44;4987402;28;20355;-79
2023/09/15 07:25:16;;;;;;;14.15;8.52;;;;;;;21.37;51.29;94212.31;4984441;28;20045;-79
2023/09/15 07:27:41;;;;;;;12.70;8.60;;;;;;;21.42;50.14;94206.56;4987539;28;20046;-79
2023/09/15 07:30:10;;;;;;;10.18;8.80;;;;;;;21.43;49.84;94200.03;4991163;28;20034;-78
2023/09/15 07:32:35;;;;;;;11.20;8.30;;;;;;;21.57;50.01;94206.75;4986231;28;20545;-81
2023/09/15 07:35:01;;;;;;;13.10;8.00;;;;;;;21.58;50.12;94198.25;4994774;28;20041;-79
2023/09/15 07:37:26;;;;;;;12.00;8.63;;;;;;;21.69;49.65;94220.00;4997624;28;20253;-79
2023/09/15 07:39:51;;;;;;;10.20;9.18;;;;;;;21.65;49.54;94203.75;4973409;28;20101;-79
2023/09/15 07:42:17;;;;;;;12.80;9.60;;;;;;;21.75;49.27;94224.72;4977926;28;20041;-79
2023/09/15 07:44:45;;;;;;;12.52;7.63;;;;;;;21.50;49.01;94206.66;4977519;28;20053;-80
2023/09/15 07:47:14;;;;;;;12.38;9.35;;;;;;;21.58;49.63;94222.59;4993685;28;20046;-77
2023/09/15 07:49:39;;;;;;;13.90;9.23;;;;;;;21.51;49.46;94216.34;4993359;28;20736;-79
2023/09/15 07:52:05;;;;;;;13.98;8.25;;;;;;;21.66;49.30;94204.50;4989265;28;20045;-78
2023/09/15 07:54:30;;;;;;;11.65;8.73;;;;;;;21.64;48.87;94202.19;4985748;28;20176;-77
2023/09/15 07:56:56;;;;;;;10.43;8.13;;;;;;;21.82;47.84;94213.94;4986260;28;20374;-79
2023/09/15 07:59:22;;;;;;;12.90;8.43;;;;;;;21.79;48.35;94208.50;4984729;28;20594;-77
2023/09/15 08:01:47;;;;;;;13.80;9.65;;;;;;;21.88;47.38;94200.81;4986125;28;20255;-79
2023/09/15 08:04:12;;;;;;;14.52;8.75;;;;;;;21.96;46.93;94207.06;4985063;28;20145;-78
2023/09/15 08:06:38;;;;;;;12.75;9.07;;;;;;;21.76;47.03;94209.22;4974947;28;20056;-79
2023/09/15 08:09:04;;;;;;;10.57;8.93;;;;;;;21.76;46.98;94199.19;4984888;28;20017;-79
2023/09/15 08:11:34;;;;;;;11.93;8.50;;;;;;;21.98;47.09;94210.97;4989820;28;20829;-79
2023/09/15 08:14:00;;;;;;;11.50;9.60;;;;;;;22.07;47.27;94207.94;4988676;28;20034;-79
2023/09/15 08:16:26;;;;;;;15.57;9.00;;;;;;;22.04;47.17;94200.56;4989551;28;20030;-78
2023/09/15 08:18:51;;;;;;;15.02;9.75;;;;;;;22.17;46.88;94191.75;4985322;28;20112;-78
2023/09/15 08:21:16;;;;;;;13.13;8.93;;;;;;;22.28;46.59;94197.28;4989905;28;20025;-77
2023/09/15 08:23:42;;;;;;;15.25;8.73;;;;;;;22.19;46.75;94191.38;4988023;28;20552;-78
2023/09/15 08:26:08;;;;;;;11.00;9.52;;;;;;;22.21;46.40;94184.44;4984884;28;20567;-78
2023/09/15 08:28:33;;;;;;;13.68;9.05;;;;;;;22.34;46.40;94179.47;4984925;28;20069;-79
2023/09/15 08:30:59;;;;;;;13.35;8.90;;;;;;;22.45;46.99;94195.81;4985509;28;20084;-77
2023/09/15 08:33:24;;;;;;;12.65;10.10;;;;;;;22.33;46.55;94177.16;4967672;28;20045;-77
2023/09/15 08:35:49;;;;;;;16.48;10.15;;;;;;;22.48;47.08;94195.06;4992090;28;20291;-79
2023/09/15 08:38:15;;;;;;;15.18;9.70;;;;;;;22.61;45.89;94199.78;4964799;28;20631;-79
2023/09/15 08:40:48;;;;;;;14.13;9.55;;;;;;;22.67;45.91;94192.06;4960380;28;20042;-79
2023/09/15 08:43:14;;;;;;;12.10;9.85;;;;;;;22.56;45.47;94174.97;4967514;28;20688;-79
2023/09/15 08:45:42;;;;;;;13.52;8.85;;;;;;;22.70;44.87;94172.31;4968433;28;20042;-79
2023/09/15 08:48:09;;;;;;;13.52;8.95;;;;;;;22.84;45.31;94177.78;4977826;28;20056;-79
2023/09/15 08:50:37;;;;;;;12.77;9.07;;;;;;;22.93;45.80;94178.22;4991517;28;20041;-79
2023/09/15 08:53:04;;;;;;;16.17;9.80;;;;;;;22.98;45.47;94175.16;4995008;28;20129;-79
2023/09/15 08:55:29;;;;;;;14.40;9.27;;;;;;;22.89;44.90;94152.25;4992836;28;20041;-79
2023/09/15 08:57:57;;;;;;;9.93;8.40;;;;;;;23.03;45.17;94172.06;4991031;28;20593;-79
2023/09/15 09:00:22;;;;;;;11.63;9.35;;;;;;;23.06;44.73;94168.59;4996466;28;20021;-79
2023/09/15 09:02:49;;;;;;;10.43;9.32;;;;;;;22.95;44.60;94165.06;4993017;28;20813;-79
2023/09/15 09:05:14;;;;;;;16.20;9.82;;;;;;;23.05;44.93;94161.63;4999904;28;20048;-79
2023/09/15 09:07:40;;;;;;;11.02;8.90;;;;;;;23.05;44.14;94158.13;4996056;28;20030;-79
2023/09/15 09:10:06;;;;;;;13.63;9.85;;;;;;;23.19;44.67;94162.81;4996885;28;20046;-80
2023/09/15 09:12:32;;;;;;;13.10;9.25;;;;;;;23.10;44.65;94155.03;4995335;28;20041;-79
2023/09/15 09:14:59;;;;;;;16.67;9.40;;;;;;;23.30;44.92;94169.81;5000880;28;20057;-79
2023/09/15 09:17:26;;;;;;;18.17;10.25;;;;;;;23.34;44.72;94158.97;4997999;28;20526;-79
2023/09/15 09:19:51;;;;;;;11.70;8.95;;;;;;;23.44;43.51;94169.84;4994467;28;20224;-78
2023/09/15 09:22:17;;;;;;;10.73;9.07;;;;;;;23.50;44.04;94170.25;4975099;28;20042;-79
2023/09/15 09:24:45;;;;;;;12.30;9.95;;;;;;;23.51;43.25;94159.00;4956761;28;20040;-78
2023/09/15 09:27:11;;;;;;;11.55;9.70;;;;;;;23.51;43.61;94175.28;4995564;28;20041;-78
2023/09/15 09:29:38;;;;;;;11.60;9.23;;;;;;;23.45;43.11;94165.19;4999256;28;20033;-79
2023/09/15 09:32:04;;;;;;;14.60;9.55;;;;;;;23.35;43.01;94161.28;4978018;28;20045;-78
2023/09/15 09:34:30;;;;;;;10.50;9.40;;;;;;;23.43;43.30;94172.94;4995504;28;20069;-77
2023/09/15 09:36:55;;;;;;;13.90;9.23;;;;;;;23.40;43.53;94162.84;4994982;28;20076;-78
2023/09/15 09:39:21;;;;;;;13.18;9.55;;;;;;;23.42;43.23;94160.50;4998779;28;20038;-79
2023/09/15 09:41:47;;;;;;;14.93;9.60;;;;;;;23.40;43.36;94171.78;4995899;28;20088;-75
2023/09/15 09:44:13;;;;;;;11.18;9.93;;;;;;;23.36;43.43;94156.66;4964778;28;20042;-79
2023/09/15 09:46:41;;;;;;;15.40;10.23;;;;;;;23.41;43.03;94161.69;4965475;28;20039;-78
2023/09/15 09:49:08;;;;;;;12.57;8.45;;;;;;;23.51;42.57;94169.09;4975756;28;20454;-78
2023/09/15 09:51:35;;;;;;;11.35;9.60;;;;;;;23.29;42.03;94162.06;4992709;28;20084;-78
2023/09/15 09:54:01;;;;;;;12.10;9.23;;;;;;;23.45;42.20;94162.47;4995082;28;20690;-78
2023/09/15 09:56:26;;;;;;;13.85;10.05;;;;;;;23.56;42.39;94160.56;4996916;28;20050;-78
2023/09/15 09:58:52;;;;;;;11.43;9.65;;;;;;;23.51;42.33;94147.38;4996494;28;20046;-79
2023/09/15 10:01:17;;;;;;;9.57;8.57;;;;;;;23.68;41.93;94156.69;4996795;28;20536;-79
2023/09/15 10:03:43;;;;;;;15.32;8.85;;;;;;;23.74;41.91;94155.16;4997862;28;20029;-79
2023/09/15 10:06:08;;;;;;;13.80;9.30;;;;;;;23.69;42.29;94137.31;4997634;28;20540;-78
2023/09/15 10:08:39;;;;;;;13.43;9.23;;;;;;;23.87;42.81;94148.16;5000249;28;20496;-78
2023/09/15 10:11:05;;;;;;;12.13;9.23;;;;;;;23.85;41.99;94140.41;4996780;28;20045;-78
2023/09/15 10:13:32;;;;;;;18.35;10.25;;;;;;;23.94;41.52;94157.09;4999344;28;20038;-78
2023/09/15 10:15:57;;;;;;;15.18;9.68;;;;;;;24.01;41.87;94143.47;4996556;28;20034;-78
2023/09/15 10:18:23;;;;;;;11.80;9.63;;;;;;;24.17;41.16;94139.59;4977659;28;20064;-79
2023/09/15 10:20:53;;;;;;;11.82;9.52;;;;;;;24.19;41.61;94151.63;4998218;28;20036;-80
2023/09/15 10:23:18;;;;;;;14.13;10.07;;;;;;;24.14;41.43;94137.69;4996661;28;20635;-78
2023/09/15 10:25:53;;;;;;;16.35;10.18;;;;;;;24.31;41.90;94140.34;4997515;28;20460;-78
2023/09/15 10:28:21;;;;;;;9.80;8.82;;;;;;;24.36;41.81;94141.88;4988576;28;20120;-78
2023/09/15 10:30:47;;;;;;;12.85;10.32;;;;;;;24.06;42.62;94138.81;4998685;28;20100;-79
2023/09/15 10:33:12;;;;;;;10.88;9.18;;;;;;;24.16;42.18;94136.09;4974948;28;20572;-78
2023/09/15 10:35:39;;;;;;;14.75;9.48;;;;;;;24.19;42.37;94134.56;4994936;28;20592;-78
2023/09/15 10:38:05;;;;;;;9.30;8.40;;;;;;;24.01;43.02;94127.16;4998445;28;21016;-79
2023/09/15 10:40:48;;;;;;;13.18;10.25;;;;;;;23.85;42.70;94112.47;4996784;28;20066;-76
2023/09/15 10:43:17;;;;;;;11.20;9.38;;;;;;;23.83;43.69;94121.00;4997338;28;20403;-78
2023/09/15 10:46:02;;;;;;;11.95;8.48;;;;;;;24.01;42.29;94127.16;4994598;28;20478;-79
2023/09/15 10:48:46;;;;;;;12.48;9.65;;;;;;;24.10;42.44;94126.00;4996422;28;20083;-78
2023/09/15 10:51:13;;;;;;;13.13;9.20;;;;;;;24.17;43.13;94123.28;4998849;28;20113;-79
2023/09/15 10:53:49;;;;;;;10.25;9.13;;;;;;;24.27;42.09;94128.72;4990694;28;20640;-78
2023/09/15 10:56:18;;;;;;;10.70;9.52;;;;;;;24.27;42.02;94123.28;4995581;28;20081;-78
2023/09/15 10:58:47;;;;;;;11.90;10.00;;;;;;;24.01;42.62;94110.88;4997411;28;20464;-79
2023/09/15 11:01:13;;;;;;;13.68;9.73;;;;;;;24.19;42.18;94112.81;4995248;28;20037;-79
2023/09/15 11:03:39;;;;;;;11.68;8.93;;;;;;;24.27;41.92;94101.53;4997269;28;20050;-79
2023/09/15 11:06:08;;;;;;;11.48;8.93;;;;;;;24.51;42.05;94115.44;4995769;28;20474;-79
2023/09/15 11:08:35;;;;;;;10.70;8.85;;;;;;;24.60;41.86;94108.41;4996069;28;20564;-79
2023/09/15 11:11:09;;;;;;;10.52;8.98;;;;;;;24.74;41.29;94107.56;4996805;28;20036;-79
2023/09/15 11:13:35;;;;;;;13.13;9.90;;;;;;;24.74;41.13;94099.41;4981434;28;20034;-79
2023/09/15 11:16:01;;;;;;;12.18;9.68;;;;;;;24.64;40.60;94092.06;4996494;28;20038;-75
2023/09/15 11:18:27;;;;;;;13.52;10.15;;;;;;;24.55;41.33;94087.06;4997125;28;20037;-79
2023/09/15 11:20:54;;;;;;;12.18;9.32;;;;;;;24.52;40.40;94089.78;4999632;28;20022;-78
2023/09/15 11:23:26;;;;;;;14.00;9.85;;;;;;;24.73;41.26;94097.88;5008888;28;20066;-79
2023/09/15 11:26:01;;;;;;;13.90;9.82;;;;;;;24.73;41.19;94081.56;4997502;28;20105;-79